sensor_id;sensor_type;location;lat;lon;timestamp;P1;P2;P0
28026;PMS5003;15344;52.342;-1.290;2023-06-04T00:00:16;7;5;
28026;PMS5003;15344;52.342;-1.290;2023-06-04T00:02:41;7;7;
28026;PMS5003;15344;52.342;-1.290;2023-06-04T00:05:06;8;3;
28026;PMS5003;15344;52.342;-1.290;2023-06-04T00:07:31;10;6;
28026;PMS5003;15344;52.342;-1.290;2023-06-04T00:09:57;9;6;
28026;PMS5003;15344;52.342;-1.290;2023-06-04T00:12:22;6;5;
28026;PMS5003;15344;52.342;-1.290;2023-06-04T00:14:47;5;4;
28026;PMS5003;15344;52.342;-1.290;2023-06-04T00:17:13;8;4;
28026;PMS5003;15344;52.342;-1.290;2023-06-04T00:19:38;7;5;
28026;PMS5003;15344;52.342;-1.290;2023-06-04T00:22:04;5;4;
28026;PMS5003;15344;52.342;-1.290;2023-06-04T00:24:29;8;7;
28026;PMS5003;15344;52.342;-1.290;2023-06-04T00:26:54;8;6;
28026;PMS5003;15344;52.342;-1.290;2023-06-04T00:29:19;7;4;
28026;PMS5003;15344;52.342;-1.290;2023-06-04T00:31:45;6;6;
28026;PMS5003;15344;52.342;-1.290;2023-06-04T00:34:11;3;3;
28026;PMS5003;15344;52.342;-1.290;2023-06-04T00:36:36;8;6;
28026;PMS5003;15344;52.342;-1.290;2023-06-04T00:39:01;5;3;
28026;PMS5003;15344;52.342;-1.290;2023-06-04T00:41:27;6;5;
28026;PMS5003;15344;52.342;-1.290;2023-06-04T00:43:52;6;5;
28026;PMS5003;15344;52.342;-1.290;2023-06-04T00:46:17;13;9;
28026;PMS5003;15344;52.342;-1.290;2023-06-04T00:48:43;5;4;
28026;PMS5003;15344;52.342;-1.290;2023-06-04T00:51:08;8;6;
28026;PMS5003;15344;52.342;-1.290;2023-06-04T00:53:33;8;5;
28026;PMS5003;15344;52.342;-1.290;2023-06-04T00:55:58;6;5;
28026;PMS5003;15344;52.342;-1.290;2023-06-04T00:58:24;4;4;
28026;PMS5003;15344;52.342;-1.290;2023-06-04T01:00:49;6;3;
28026;PMS5003;15344;52.342;-1.290;2023-06-04T01:03:16;5;5;
28026;PMS5003;15344;52.342;-1.290;2023-06-04T01:05:40;8;5;
28026;PMS5003;15344;52.342;-1.290;2023-06-04T01:08:05;3;3;
28026;PMS5003;15344;52.342;-1.290;2023-06-04T01:10:30;3;3;
28026;PMS5003;15344;52.342;-1.290;2023-06-04T01:12:55;7;7;
28026;PMS5003;15344;52.342;-1.290;2023-06-04T01:15:21;5;5;
28026;PMS5003;15344;52.342;-1.290;2023-06-04T01:17:48;4;4;
28026;PMS5003;15344;52.342;-1.290;2023-06-04T01:20:18;6;3;
28026;PMS5003;15344;52.342;-1.290;2023-06-04T01:22:38;4;3;
28026;PMS5003;15344;52.342;-1.290;2023-06-04T01:25:04;4;4;
28026;PMS5003;15344;52.342;-1.290;2023-06-04T01:27:29;5;5;
28026;PMS5003;15344;52.342;-1.290;2023-06-04T01:29:54;5;5;
28026;PMS5003;15344;52.342;-1.290;2023-06-04T01:32:19;7;5;
28026;PMS5003;15344;52.342;-1.290;2023-06-04T01:34:45;7;5;
28026;PMS5003;15344;52.342;-1.290;2023-06-04T01:37:10;5;5;
28026;PMS5003;15344;52.342;-1.290;2023-06-04T01:39:35;9;7;
28026;PMS5003;15344;52.342;-1.290;2023-06-04T01:42:01;9;4;
28026;PMS5003;15344;52.342;-1.290;2023-06-04T01:44:26;4;4;
28026;PMS5003;15344;52.342;-1.290;2023-06-04T01:46:51;10;7;
28026;PMS5003;15344;52.342;-1.290;2023-06-04T01:49:16;6;5;
28026;PMS5003;15344;52.342;-1.290;2023-06-04T01:51:42;11;9;
28026;PMS5003;15344;52.342;-1.290;2023-06-04T01:54:08;7;6;
28026;PMS5003;15344;52.342;-1.290;2023-06-04T01:56:33;10;6;
28026;PMS5003;15344;52.342;-1.290;2023-06-04T01:58:58;7;6;
28026;PMS5003;15344;52.342;-1.290;2023-06-04T02:01:23;9;7;
28026;PMS5003;15344;52.342;-1.290;2023-06-04T02:03:49;7;6;
28026;PMS5003;15344;52.342;-1.290;2023-06-04T02:06:14;13;6;
28026;PMS5003;15344;52.342;-1.290;2023-06-04T02:08:40;8;7;
28026;PMS5003;15344;52.342;-1.290;2023-06-04T02:11:05;8;8;
28026;PMS5003;15344;52.342;-1.290;2023-06-04T02:13:30;10;8;
28026;PMS5003;15344;52.342;-1.290;2023-06-04T02:15:56;8;6;
28026;PMS5003;15344;52.342;-1.290;2023-06-04T02:18:21;9;6;
28026;PMS5003;15344;52.342;-1.290;2023-06-04T02:20:47;8;6;
28026;PMS5003;15344;52.342;-1.290;2023-06-04T02:23:12;11;7;
28026;PMS5003;15344;52.342;-1.290;2023-06-04T02:25:38;7;7;
28026;PMS5003;15344;52.342;-1.290;2023-06-04T02:28:03;6;3;
28026;PMS5003;15344;52.342;-1.290;2023-06-04T02:30:28;11;7;
28026;PMS5003;15344;52.342;-1.290;2023-06-04T02:32:54;9;6;
28026;PMS5003;15344;52.342;-1.290;2023-06-04T02:35:19;8;6;
28026;PMS5003;15344;52.342;-1.290;2023-06-04T02:37:44;7;5;
28026;PMS5003;15344;52.342;-1.290;2023-06-04T02:40:10;10;8;
28026;PMS5003;15344;52.342;-1.290;2023-06-04T02:42:36;11;9;
28026;PMS5003;15344;52.342;-1.290;2023-06-04T02:45:01;10;8;
28026;PMS5003;15344;52.342;-1.290;2023-06-04T02:47:27;11;9;
28026;PMS5003;15344;52.342;-1.290;2023-06-04T02:49:52;7;7;
28026;PMS5003;15344;52.342;-1.290;2023-06-04T02:52:17;13;11;
28026;PMS5003;15344;52.342;-1.290;2023-06-04T02:54:43;11;8;
28026;PMS5003;15344;52.342;-1.290;2023-06-04T02:57:09;8;6;
28026;PMS5003;15344;52.342;-1.290;2023-06-04T02:59:35;14;10;
28026;PMS5003;15344;52.342;-1.290;2023-06-04T03:02:01;14;10;
28026;PMS5003;15344;52.342;-1.290;2023-06-04T03:04:26;11;9;
28026;PMS5003;15344;52.342;-1.290;2023-06-04T03:06:51;11;9;
28026;PMS5003;15344;52.342;-1.290;2023-06-04T03:09:17;13;10;
28026;PMS5003;15344;52.342;-1.290;2023-06-04T03:11:42;17;9;
28026;PMS5003;15344;52.342;-1.290;2023-06-04T03:14:09;18;11;
28026;PMS5003;15344;52.342;-1.290;2023-06-04T03:16:34;8;8;
28026;PMS5003;15344;52.342;-1.290;2023-06-04T03:18:59;10;8;
28026;PMS5003;15344;52.342;-1.290;2023-06-04T03:21:24;12;9;
28026;PMS5003;15344;52.342;-1.290;2023-06-04T03:23:49;7;7;
28026;PMS5003;15344;52.342;-1.290;2023-06-04T03:26:15;11;10;
28026;PMS5003;15344;52.342;-1.290;2023-06-04T03:28:40;14;10;
28026;PMS5003;15344;52.342;-1.290;2023-06-04T03:31:06;16;10;
28026;PMS5003;15344;52.342;-1.290;2023-06-04T03:33:32;18;10;
28026;PMS5003;15344;52.342;-1.290;2023-06-04T03:35:57;12;9;
28026;PMS5003;15344;52.342;-1.290;2023-06-04T03:38:23;17;14;
28026;PMS5003;15344;52.342;-1.290;2023-06-04T03:40:48;14;8;
28026;PMS5003;15344;52.342;-1.290;2023-06-04T03:43:14;10;8;
28026;PMS5003;15344;52.342;-1.290;2023-06-04T03:45:40;13;8;
28026;PMS5003;15344;52.342;-1.290;2023-06-04T03:48:05;13;8;
28026;PMS5003;15344;52.342;-1.290;2023-06-04T03:50:31;10;9;
28026;PMS5003;15344;52.342;-1.290;2023-06-04T03:52:57;9;8;
28026;PMS5003;15344;52.342;-1.290;2023-06-04T03:55:22;10;8;
28026;PMS5003;15344;52.342;-1.290;2023-06-04T03:57:47;9;7;
28026;PMS5003;15344;52.342;-1.290;2023-06-04T04:00:13;11;9;
28026;PMS5003;15344;52.342;-1.290;2023-06-04T04:02:38;13;9;
28026;PMS5003;15344;52.342;-1.290;2023-06-04T04:05:03;11;9;
28026;PMS5003;15344;52.342;-1.290;2023-06-04T04:07:29;14;9;
28026;PMS5003;15344;52.342;-1.290;2023-06-04T04:09:54;8;7;
28026;PMS5003;15344;52.342;-1.290;2023-06-04T04:12:19;10;10;
28026;PMS5003;15344;52.342;-1.290;2023-06-04T04:14:45;9;9;
28026;PMS5003;15344;52.342;-1.290;2023-06-04T04:17:10;8;8;
28026;PMS5003;15344;52.342;-1.290;2023-06-04T04:19:35;13;6;
28026;PMS5003;15344;52.342;-1.290;2023-06-04T04:22:01;5;5;
28026;PMS5003;15344;52.342;-1.290;2023-06-04T04:24:27;8;8;
28026;PMS5003;15344;52.342;-1.290;2023-06-04T04:26:52;6;4;
28026;PMS5003;15344;52.342;-1.290;2023-06-04T04:29:17;6;6;
28026;PMS5003;15344;52.342;-1.290;2023-06-04T04:31:43;8;7;
28026;PMS5003;15344;52.342;-1.290;2023-06-04T04:34:08;7;7;
28026;PMS5003;15344;52.342;-1.290;2023-06-04T04:36:33;9;6;
28026;PMS5003;15344;52.342;-1.290;2023-06-04T04:38:59;9;7;
28026;PMS5003;15344;52.342;-1.290;2023-06-04T04:41:24;12;7;
28026;PMS5003;15344;52.342;-1.290;2023-06-04T04:43:52;10;7;
28026;PMS5003;15344;52.342;-1.290;2023-06-04T04:46:15;7;4;
28026;PMS5003;15344;52.342;-1.290;2023-06-04T04:48:40;5;4;
28026;PMS5003;15344;52.342;-1.290;2023-06-04T04:51:05;9;8;
28026;PMS5003;15344;52.342;-1.290;2023-06-04T04:53:31;7;7;
28026;PMS5003;15344;52.342;-1.290;2023-06-04T04:55:57;8;6;
28026;PMS5003;15344;52.342;-1.290;2023-06-04T04:58:21;11;7;
28026;PMS5003;15344;52.342;-1.290;2023-06-04T05:00:48;10;7;
28026;PMS5003;15344;52.342;-1.290;2023-06-04T05:03:13;10;8;
28026;PMS5003;15344;52.342;-1.290;2023-06-04T05:05:38;10;8;
28026;PMS5003;15344;52.342;-1.290;2023-06-04T05:08:04;11;9;
28026;PMS5003;15344;52.342;-1.290;2023-06-04T05:10:30;9;9;
28026;PMS5003;15344;52.342;-1.290;2023-06-04T05:12:56;11;9;
28026;PMS5003;15344;52.342;-1.290;2023-06-04T05:15:20;11;10;
28026;PMS5003;15344;52.342;-1.290;2023-06-04T05:17:46;8;8;
28026;PMS5003;15344;52.342;-1.290;2023-06-04T05:20:11;7;7;
28026;PMS5003;15344;52.342;-1.290;2023-06-04T05:22:36;10;8;
28026;PMS5003;15344;52.342;-1.290;2023-06-04T05:25:02;8;7;
28026;PMS5003;15344;52.342;-1.290;2023-06-04T05:27:27;11;8;
28026;PMS5003;15344;52.342;-1.290;2023-06-04T05:29:52;8;7;
28026;PMS5003;15344;52.342;-1.290;2023-06-04T05:32:17;10;8;
28026;PMS5003;15344;52.342;-1.290;2023-06-04T05:34:43;8;6;
28026;PMS5003;15344;52.342;-1.290;2023-06-04T05:37:09;11;9;
28026;PMS5003;15344;52.342;-1.290;2023-06-04T05:39:34;11;9;
28026;PMS5003;15344;52.342;-1.290;2023-06-04T05:42:00;14;11;
28026;PMS5003;15344;52.342;-1.290;2023-06-04T05:44:26;11;8;
28026;PMS5003;15344;52.342;-1.290;2023-06-04T05:46:51;12;10;
28026;PMS5003;15344;52.342;-1.290;2023-06-04T05:49:16;11;9;
28026;PMS5003;15344;52.342;-1.290;2023-06-04T05:51:42;10;9;
28026;PMS5003;15344;52.342;-1.290;2023-06-04T05:54:08;11;10;
28026;PMS5003;15344;52.342;-1.290;2023-06-04T05:56:33;15;9;
28026;PMS5003;15344;52.342;-1.290;2023-06-04T05:58:58;9;7;
28026;PMS5003;15344;52.342;-1.290;2023-06-04T06:01:24;10;8;
28026;PMS5003;15344;52.342;-1.290;2023-06-04T06:03:49;11;9;
28026;PMS5003;15344;52.342;-1.290;2023-06-04T06:06:14;8;8;
28026;PMS5003;15344;52.342;-1.290;2023-06-04T06:08:40;9;9;
28026;PMS5003;15344;52.342;-1.290;2023-06-04T06:11:06;9;9;
28026;PMS5003;15344;52.342;-1.290;2023-06-04T06:13:31;10;9;
28026;PMS5003;15344;52.342;-1.290;2023-06-04T06:15:56;13;8;
28026;PMS5003;15344;52.342;-1.290;2023-06-04T06:18:22;11;9;
28026;PMS5003;15344;52.342;-1.290;2023-06-04T06:20:47;13;9;
28026;PMS5003;15344;52.342;-1.290;2023-06-04T06:23:12;12;10;
28026;PMS5003;15344;52.342;-1.290;2023-06-04T06:25:38;9;9;
28026;PMS5003;15344;52.342;-1.290;2023-06-04T06:28:03;8;8;
28026;PMS5003;15344;52.342;-1.290;2023-06-04T06:30:28;10;10;
28026;PMS5003;15344;52.342;-1.290;2023-06-04T06:32:53;14;7;
28026;PMS5003;15344;52.342;-1.290;2023-06-04T06:35:19;14;11;
28026;PMS5003;15344;52.342;-1.290;2023-06-04T06:37:44;13;9;
28026;PMS5003;15344;52.342;-1.290;2023-06-04T06:40:10;11;9;
28026;PMS5003;15344;52.342;-1.290;2023-06-04T06:42:35;10;7;
28026;PMS5003;15344;52.342;-1.290;2023-06-04T06:45:01;9;9;
28026;PMS5003;15344;52.342;-1.290;2023-06-04T06:47:25;10;6;
28026;PMS5003;15344;52.342;-1.290;2023-06-04T06:49:50;9;8;
28026;PMS5003;15344;52.342;-1.290;2023-06-04T06:52:16;9;9;
28026;PMS5003;15344;52.342;-1.290;2023-06-04T06:54:41;9;8;
28026;PMS5003;15344;52.342;-1.290;2023-06-04T06:57:06;11;8;
28026;PMS5003;15344;52.342;-1.290;2023-06-04T06:59:32;7;6;
28026;PMS5003;15344;52.342;-1.290;2023-06-04T07:01:57;8;8;
28026;PMS5003;15344;52.342;-1.290;2023-06-04T07:04:22;7;6;
28026;PMS5003;15344;52.342;-1.290;2023-06-04T07:06:48;11;8;
28026;PMS5003;15344;52.342;-1.290;2023-06-04T07:09:13;9;6;
28026;PMS5003;15344;52.342;-1.290;2023-06-04T07:11:38;12;9;
28026;PMS5003;15344;52.342;-1.290;2023-06-04T07:14:03;10;7;
28026;PMS5003;15344;52.342;-1.290;2023-06-04T07:16:29;13;8;
28026;PMS5003;15344;52.342;-1.290;2023-06-04T07:18:54;10;8;
28026;PMS5003;15344;52.342;-1.290;2023-06-04T07:21:19;6;6;
28026;PMS5003;15344;52.342;-1.290;2023-06-04T07:23:44;6;4;
28026;PMS5003;15344;52.342;-1.290;2023-06-04T07:26:10;6;6;
28026;PMS5003;15344;52.342;-1.290;2023-06-04T07:28:35;5;5;
28026;PMS5003;15344;52.342;-1.290;2023-06-04T07:31:00;10;5;
28026;PMS5003;15344;52.342;-1.290;2023-06-04T07:33:26;8;6;
28026;PMS5003;15344;52.342;-1.290;2023-06-04T07:35:52;7;5;
28026;PMS5003;15344;52.342;-1.290;2023-06-04T07:38:17;11;7;
28026;PMS5003;15344;52.342;-1.290;2023-06-04T07:40:42;4;4;
28026;PMS5003;15344;52.342;-1.290;2023-06-04T07:43:08;6;5;
28026;PMS5003;15344;52.342;-1.290;2023-06-04T07:45:33;7;6;
28026;PMS5003;15344;52.342;-1.290;2023-06-04T07:47:58;6;4;
28026;PMS5003;15344;52.342;-1.290;2023-06-04T07:50:23;5;5;
28026;PMS5003;15344;52.342;-1.290;2023-06-04T07:52:48;5;4;
28026;PMS5003;15344;52.342;-1.290;2023-06-04T07:55:13;6;3;
28026;PMS5003;15344;52.342;-1.290;2023-06-04T07:57:38;4;4;
28026;PMS5003;15344;52.342;-1.290;2023-06-04T08:00:05;3;3;
28026;PMS5003;15344;52.342;-1.290;2023-06-04T08:02:29;5;5;
28026;PMS5003;15344;52.342;-1.290;2023-06-04T08:04:54;6;3;
28026;PMS5003;15344;52.342;-1.290;2023-06-04T08:07:19;5;4;
28026;PMS5003;15344;52.342;-1.290;2023-06-04T08:09:44;8;4;
28026;PMS5003;15344;52.342;-1.290;2023-06-04T08:12:10;4;3;
28026;PMS5003;15344;52.342;-1.290;2023-06-04T08:14:36;3;3;
28026;PMS5003;15344;52.342;-1.290;2023-06-04T08:17:01;4;3;
28026;PMS5003;15344;52.342;-1.290;2023-06-04T08:19:27;5;4;
28026;PMS5003;15344;52.342;-1.290;2023-06-04T08:21:53;6;4;
28026;PMS5003;15344;52.342;-1.290;2023-06-04T08:24:19;7;6;
28026;PMS5003;15344;52.342;-1.290;2023-06-04T08:26:44;4;4;
28026;PMS5003;15344;52.342;-1.290;2023-06-04T08:29:10;3;3;
28026;PMS5003;15344;52.342;-1.290;2023-06-04T08:31:36;4;3;
28026;PMS5003;15344;52.342;-1.290;2023-06-04T08:34:02;5;5;
28026;PMS5003;15344;52.342;-1.290;2023-06-04T08:36:27;6;4;
28026;PMS5003;15344;52.342;-1.290;2023-06-04T08:38:53;5;3;
28026;PMS5003;15344;52.342;-1.290;2023-06-04T08:41:22;4;4;
28026;PMS5003;15344;52.342;-1.290;2023-06-04T08:43:45;4;4;
28026;PMS5003;15344;52.342;-1.290;2023-06-04T08:46:11;3;1;
28026;PMS5003;15344;52.342;-1.290;2023-06-04T08:48:36;4;4;
28026;PMS5003;15344;52.342;-1.290;2023-06-04T08:51:02;3;3;
28026;PMS5003;15344;52.342;-1.290;2023-06-04T08:53:29;3;3;
28026;PMS5003;15344;52.342;-1.290;2023-06-04T08:55:53;2;2;
28026;PMS5003;15344;52.342;-1.290;2023-06-04T08:58:19;3;3;
28026;PMS5003;15344;52.342;-1.290;2023-06-04T09:00:45;3;3;
28026;PMS5003;15344;52.342;-1.290;2023-06-04T09:03:10;2;2;
28026;PMS5003;15344;52.342;-1.290;2023-06-04T09:05:36;4;2;
28026;PMS5003;15344;52.342;-1.290;2023-06-04T09:08:02;4;3;
28026;PMS5003;15344;52.342;-1.290;2023-06-04T09:10:27;2;2;
28026;PMS5003;15344;52.342;-1.290;2023-06-04T09:12:53;3;3;
28026;PMS5003;15344;52.342;-1.290;2023-06-04T09:15:19;3;3;
28026;PMS5003;15344;52.342;-1.290;2023-06-04T09:17:44;4;3;
28026;PMS5003;15344;52.342;-1.290;2023-06-04T09:22:36;5;4;
28026;PMS5003;15344;52.342;-1.290;2023-06-04T09:25:03;2;2;
28026;PMS5003;15344;52.342;-1.290;2023-06-04T09:27:27;2;2;
28026;PMS5003;15344;52.342;-1.290;2023-06-04T09:29:53;5;3;
28026;PMS5003;15344;52.342;-1.290;2023-06-04T09:32:22;4;3;
28026;PMS5003;15344;52.342;-1.290;2023-06-04T09:34:44;5;4;
28026;PMS5003;15344;52.342;-1.290;2023-06-04T09:37:13;3;3;
28026;PMS5003;15344;52.342;-1.290;2023-06-04T09:39:35;3;3;
28026;PMS5003;15344;52.342;-1.290;2023-06-04T09:42:01;3;3;
28026;PMS5003;15344;52.342;-1.290;2023-06-04T09:44:27;2;2;
28026;PMS5003;15344;52.342;-1.290;2023-06-04T09:46:54;4;3;
28026;PMS5003;15344;52.342;-1.290;2023-06-04T09:49:18;2;2;
28026;PMS5003;15344;52.342;-1.290;2023-06-04T09:51:46;6;3;
28026;PMS5003;15344;52.342;-1.290;2023-06-04T09:54:09;7;3;
28026;PMS5003;15344;52.342;-1.290;2023-06-04T09:56:39;1;1;
28026;PMS5003;15344;52.342;-1.290;2023-06-04T09:59:01;3;3;
28026;PMS5003;15344;52.342;-1.290;2023-06-04T10:01:26;3;3;
28026;PMS5003;15344;52.342;-1.290;2023-06-04T10:03:53;4;4;
28026;PMS5003;15344;52.342;-1.290;2023-06-04T10:06:18;4;3;
28026;PMS5003;15344;52.342;-1.290;2023-06-04T10:08:43;4;3;
28026;PMS5003;15344;52.342;-1.290;2023-06-04T10:11:09;2;2;
28026;PMS5003;15344;52.342;-1.290;2023-06-04T10:13:36;1;1;
28026;PMS5003;15344;52.342;-1.290;2023-06-04T10:16:00;3;3;
28026;PMS5003;15344;52.342;-1.290;2023-06-04T10:18:27;3;3;
28026;PMS5003;15344;52.342;-1.290;2023-06-04T10:20:52;2;2;
28026;PMS5003;15344;52.342;-1.290;2023-06-04T10:23:17;1;1;
28026;PMS5003;15344;52.342;-1.290;2023-06-04T10:25:43;4;3;
28026;PMS5003;15344;52.342;-1.290;2023-06-04T10:28:08;4;3;
28026;PMS5003;15344;52.342;-1.290;2023-06-04T10:30:34;3;3;
28026;PMS5003;15344;52.342;-1.290;2023-06-04T10:33:00;4;3;
28026;PMS5003;15344;52.342;-1.290;2023-06-04T10:35:29;4;3;
28026;PMS5003;15344;52.342;-1.290;2023-06-04T10:37:51;2;2;
28026;PMS5003;15344;52.342;-1.290;2023-06-04T10:40:17;5;3;
28026;PMS5003;15344;52.342;-1.290;2023-06-04T10:42:43;3;2;
28026;PMS5003;15344;52.342;-1.290;2023-06-04T10:45:09;4;3;
28026;PMS5003;15344;52.342;-1.290;2023-06-04T10:47:34;4;3;
28026;PMS5003;15344;52.342;-1.290;2023-06-04T10:52:26;4;3;
28026;PMS5003;15344;52.342;-1.290;2023-06-04T10:54:52;6;4;
28026;PMS5003;15344;52.342;-1.290;2023-06-04T10:57:17;6;5;
28026;PMS5003;15344;52.342;-1.290;2023-06-04T11:02:09;4;4;
28026;PMS5003;15344;52.342;-1.290;2023-06-04T11:04:35;4;4;
28026;PMS5003;15344;52.342;-1.290;2023-06-04T11:07:01;4;4;
28026;PMS5003;15344;52.342;-1.290;2023-06-04T11:09:26;5;4;
28026;PMS5003;15344;52.342;-1.290;2023-06-04T11:11:56;5;4;
28026;PMS5003;15344;52.342;-1.290;2023-06-04T11:14:18;4;4;
28026;PMS5003;15344;52.342;-1.290;2023-06-04T11:16:43;5;3;
28026;PMS5003;15344;52.342;-1.290;2023-06-04T11:19:09;4;4;
28026;PMS5003;15344;52.342;-1.290;2023-06-04T11:21:34;3;3;
28026;PMS5003;15344;52.342;-1.290;2023-06-04T11:24:01;4;4;
28026;PMS5003;15344;52.342;-1.290;2023-06-04T11:26:29;3;3;
28026;PMS5003;15344;52.342;-1.290;2023-06-04T11:28:52;4;4;
28026;PMS5003;15344;52.342;-1.290;2023-06-04T11:31:18;3;3;
28026;PMS5003;15344;52.342;-1.290;2023-06-04T11:33:44;6;6;
28026;PMS5003;15344;52.342;-1.290;2023-06-04T11:36:10;6;6;
28026;PMS5003;15344;52.342;-1.290;2023-06-04T11:38:35;6;6;
28026;PMS5003;15344;52.342;-1.290;2023-06-04T11:41:01;4;4;
28026;PMS5003;15344;52.342;-1.290;2023-06-04T11:43:27;7;5;
28026;PMS5003;15344;52.342;-1.290;2023-06-04T11:45:52;5;5;
28026;PMS5003;15344;52.342;-1.290;2023-06-04T11:48:17;5;5;
28026;PMS5003;15344;52.342;-1.290;2023-06-04T11:50:43;7;5;
28026;PMS5003;15344;52.342;-1.290;2023-06-04T11:53:09;7;5;
28026;PMS5003;15344;52.342;-1.290;2023-06-04T11:55:34;5;5;
28026;PMS5003;15344;52.342;-1.290;2023-06-04T11:58:01;4;4;
28026;PMS5003;15344;52.342;-1.290;2023-06-04T12:00:26;7;6;
28026;PMS5003;15344;52.342;-1.290;2023-06-04T12:02:53;5;5;
28026;PMS5003;15344;52.342;-1.290;2023-06-04T12:05:18;6;4;
28026;PMS5003;15344;52.342;-1.290;2023-06-04T12:07:44;3;3;
28026;PMS5003;15344;52.342;-1.290;2023-06-04T12:10:10;5;5;
28026;PMS5003;15344;52.342;-1.290;2023-06-04T12:12:35;4;4;
28026;PMS5003;15344;52.342;-1.290;2023-06-04T12:15:01;4;4;
28026;PMS5003;15344;52.342;-1.290;2023-06-04T12:17:26;4;4;
28026;PMS5003;15344;52.342;-1.290;2023-06-04T12:19:52;4;4;
28026;PMS5003;15344;52.342;-1.290;2023-06-04T12:22:18;6;6;
28026;PMS5003;15344;52.342;-1.290;2023-06-04T12:24:48;5;5;
28026;PMS5003;15344;52.342;-1.290;2023-06-04T12:27:10;4;2;
28026;PMS5003;15344;52.342;-1.290;2023-06-04T12:29:36;3;2;
28026;PMS5003;15344;52.342;-1.290;2023-06-04T12:32:02;4;4;
28026;PMS5003;15344;52.342;-1.290;2023-06-04T12:34:27;4;4;
28026;PMS5003;15344;52.342;-1.290;2023-06-04T12:36:53;4;4;
28026;PMS5003;15344;52.342;-1.290;2023-06-04T12:39:19;5;5;
28026;PMS5003;15344;52.342;-1.290;2023-06-04T12:41:45;4;4;
28026;PMS5003;15344;52.342;-1.290;2023-06-04T12:44:10;5;5;
28026;PMS5003;15344;52.342;-1.290;2023-06-04T12:46:35;6;4;
28026;PMS5003;15344;52.342;-1.290;2023-06-04T12:49:01;5;3;
28026;PMS5003;15344;52.342;-1.290;2023-06-04T12:51:26;5;5;
28026;PMS5003;15344;52.342;-1.290;2023-06-04T12:53:51;5;5;
28026;PMS5003;15344;52.342;-1.290;2023-06-04T12:56:16;6;5;
28026;PMS5003;15344;52.342;-1.290;2023-06-04T12:58:41;5;5;
28026;PMS5003;15344;52.342;-1.290;2023-06-04T13:01:06;4;4;
28026;PMS5003;15344;52.342;-1.290;2023-06-04T13:03:31;4;4;
28026;PMS5003;15344;52.342;-1.290;2023-06-04T13:05:56;5;5;
28026;PMS5003;15344;52.342;-1.290;2023-06-04T13:08:21;6;5;
28026;PMS5003;15344;52.342;-1.290;2023-06-04T13:10:46;9;6;
28026;PMS5003;15344;52.342;-1.290;2023-06-04T13:13:11;5;5;
28026;PMS5003;15344;52.342;-1.290;2023-06-04T13:15:36;4;4;
28026;PMS5003;15344;52.342;-1.290;2023-06-04T13:18:01;6;5;
28026;PMS5003;15344;52.342;-1.290;2023-06-04T13:20:26;6;6;
28026;PMS5003;15344;52.342;-1.290;2023-06-04T13:22:51;7;5;
28026;PMS5003;15344;52.342;-1.290;2023-06-04T13:25:16;6;6;
28026;PMS5003;15344;52.342;-1.290;2023-06-04T13:27:41;6;4;
28026;PMS5003;15344;52.342;-1.290;2023-06-04T13:30:06;5;5;
28026;PMS5003;15344;52.342;-1.290;2023-06-04T13:32:31;9;8;
28026;PMS5003;15344;52.342;-1.290;2023-06-04T13:34:56;7;5;
28026;PMS5003;15344;52.342;-1.290;2023-06-04T13:37:21;8;6;
28026;PMS5003;15344;52.342;-1.290;2023-06-04T13:39:46;4;4;
28026;PMS5003;15344;52.342;-1.290;2023-06-04T13:42:11;6;5;
28026;PMS5003;15344;52.342;-1.290;2023-06-04T13:44:36;5;4;
28026;PMS5003;15344;52.342;-1.290;2023-06-04T13:47:01;7;6;
28026;PMS5003;15344;52.342;-1.290;2023-06-04T13:49:26;6;5;
28026;PMS5003;15344;52.342;-1.290;2023-06-04T13:51:52;4;4;
28026;PMS5003;15344;52.342;-1.290;2023-06-04T13:54:17;6;6;
28026;PMS5003;15344;52.342;-1.290;2023-06-04T13:56:43;3;3;
28026;PMS5003;15344;52.342;-1.290;2023-06-04T13:59:07;7;6;
28026;PMS5003;15344;52.342;-1.290;2023-06-04T14:01:32;4;4;
28026;PMS5003;15344;52.342;-1.290;2023-06-04T14:03:57;5;5;
28026;PMS5003;15344;52.342;-1.290;2023-06-04T14:06:22;4;3;
28026;PMS5003;15344;52.342;-1.290;2023-06-04T14:08:47;3;3;
28026;PMS5003;15344;52.342;-1.290;2023-06-04T14:11:12;5;5;
28026;PMS5003;15344;52.342;-1.290;2023-06-04T14:13:37;3;3;
28026;PMS5003;15344;52.342;-1.290;2023-06-04T14:16:02;5;5;
28026;PMS5003;15344;52.342;-1.290;2023-06-04T14:18:27;7;7;
28026;PMS5003;15344;52.342;-1.290;2023-06-04T14:20:52;4;4;
28026;PMS5003;15344;52.342;-1.290;2023-06-04T14:23:17;7;4;
28026;PMS5003;15344;52.342;-1.290;2023-06-04T14:25:42;6;5;
28026;PMS5003;15344;52.342;-1.290;2023-06-04T14:28:07;17;15;
28026;PMS5003;15344;52.342;-1.290;2023-06-04T14:30:32;7;5;
28026;PMS5003;15344;52.342;-1.290;2023-06-04T14:32:57;8;6;
28026;PMS5003;15344;52.342;-1.290;2023-06-04T14:35:22;4;4;
28026;PMS5003;15344;52.342;-1.290;2023-06-04T14:37:47;6;5;
28026;PMS5003;15344;52.342;-1.290;2023-06-04T14:40:13;4;4;
28026;PMS5003;15344;52.342;-1.290;2023-06-04T14:42:38;6;5;
28026;PMS5003;15344;52.342;-1.290;2023-06-04T14:45:04;4;3;
28026;PMS5003;15344;52.342;-1.290;2023-06-04T14:47:28;5;4;
28026;PMS5003;15344;52.342;-1.290;2023-06-04T14:49:53;6;5;
28026;PMS5003;15344;52.342;-1.290;2023-06-04T14:52:18;6;6;
28026;PMS5003;15344;52.342;-1.290;2023-06-04T14:54:43;4;4;
28026;PMS5003;15344;52.342;-1.290;2023-06-04T14:57:08;5;4;
28026;PMS5003;15344;52.342;-1.290;2023-06-04T14:59:35;4;4;
28026;PMS5003;15344;52.342;-1.290;2023-06-04T15:02:00;7;5;
28026;PMS5003;15344;52.342;-1.290;2023-06-04T15:04:24;5;5;
28026;PMS5003;15344;52.342;-1.290;2023-06-04T15:06:49;8;5;
28026;PMS5003;15344;52.342;-1.290;2023-06-04T15:09:14;4;4;
28026;PMS5003;15344;52.342;-1.290;2023-06-04T15:11:39;7;7;
28026;PMS5003;15344;52.342;-1.290;2023-06-04T15:14:04;4;4;
28026;PMS5003;15344;52.342;-1.290;2023-06-04T15:16:29;5;4;
28026;PMS5003;15344;52.342;-1.290;2023-06-04T15:18:55;4;4;
28026;PMS5003;15344;52.342;-1.290;2023-06-04T15:21:19;5;4;
28026;PMS5003;15344;52.342;-1.290;2023-06-04T15:23:44;5;4;
28026;PMS5003;15344;52.342;-1.290;2023-06-04T15:26:10;5;5;
28026;PMS5003;15344;52.342;-1.290;2023-06-04T15:28:34;6;6;
28026;PMS5003;15344;52.342;-1.290;2023-06-04T15:31:00;6;5;
28026;PMS5003;15344;52.342;-1.290;2023-06-04T15:33:25;5;5;
28026;PMS5003;15344;52.342;-1.290;2023-06-04T15:35:50;5;5;
28026;PMS5003;15344;52.342;-1.290;2023-06-04T15:38:15;5;4;
28026;PMS5003;15344;52.342;-1.290;2023-06-04T15:40:40;6;5;
28026;PMS5003;15344;52.342;-1.290;2023-06-04T15:43:05;8;4;
28026;PMS5003;15344;52.342;-1.290;2023-06-04T15:45:30;5;4;
28026;PMS5003;15344;52.342;-1.290;2023-06-04T15:47:55;6;6;
28026;PMS5003;15344;52.342;-1.290;2023-06-04T15:50:20;5;5;
28026;PMS5003;15344;52.342;-1.290;2023-06-04T15:52:45;6;4;
28026;PMS5003;15344;52.342;-1.290;2023-06-04T15:55:10;5;4;
28026;PMS5003;15344;52.342;-1.290;2023-06-04T15:57:35;6;6;
28026;PMS5003;15344;52.342;-1.290;2023-06-04T16:00:02;3;3;
28026;PMS5003;15344;52.342;-1.290;2023-06-04T16:02:27;7;6;
28026;PMS5003;15344;52.342;-1.290;2023-06-04T16:04:52;5;5;
28026;PMS5003;15344;52.342;-1.290;2023-06-04T16:07:17;5;4;
28026;PMS5003;15344;52.342;-1.290;2023-06-04T16:09:42;5;5;
28026;PMS5003;15344;52.342;-1.290;2023-06-04T16:12:07;6;5;
28026;PMS5003;15344;52.342;-1.290;2023-06-04T16:14:32;4;4;
28026;PMS5003;15344;52.342;-1.290;2023-06-04T16:16:57;4;3;
28026;PMS5003;15344;52.342;-1.290;2023-06-04T16:19:22;3;3;
28026;PMS5003;15344;52.342;-1.290;2023-06-04T16:21:47;5;4;
28026;PMS5003;15344;52.342;-1.290;2023-06-04T16:24:12;5;5;